sensor_id;sensor_type;location;lat;lon;timestamp;P1;durP1;ratioP1;P2;durP2;ratioP2
62925;SDS011;55732;52.248;-0.844;2023-05-10T00:01:39;9.50;;;5.50;;
62925;SDS011;55732;52.248;-0.844;2023-05-10T00:04:05;11.00;;;5.10;;
62925;SDS011;55732;52.248;-0.844;2023-05-10T00:06:31;7.00;;;4.80;;
62925;SDS011;55732;52.248;-0.844;2023-05-10T00:08:56;7.50;;;4.70;;
62925;SDS011;55732;52.248;-0.844;2023-05-10T00:11:22;9.60;;;4.90;;
62925;SDS011;55732;52.248;-0.844;2023-05-10T00:13:47;10.30;;;4.70;;
62925;SDS011;55732;52.248;-0.844;2023-05-10T00:16:13;9.20;;;4.50;;
62925;SDS011;55732;52.248;-0.844;2023-05-10T00:18:39;7.90;;;4.70;;
62925;SDS011;55732;52.248;-0.844;2023-05-10T00:21:05;8.00;;;4.20;;
62925;SDS011;55732;52.248;-0.844;2023-05-10T00:23:30;15.00;;;4.90;;
62925;SDS011;55732;52.248;-0.844;2023-05-10T00:25:55;12.70;;;5.40;;
62925;SDS011;55732;52.248;-0.844;2023-05-10T00:28:21;10.50;;;4.60;;
62925;SDS011;55732;52.248;-0.844;2023-05-10T00:30:46;12.90;;;4.70;;
62925;SDS011;55732;52.248;-0.844;2023-05-10T00:33:12;7.80;;;4.60;;
62925;SDS011;55732;52.248;-0.844;2023-05-10T00:35:37;11.90;;;4.60;;
62925;SDS011;55732;52.248;-0.844;2023-05-10T00:38:03;9.90;;;4.40;;
62925;SDS011;55732;52.248;-0.844;2023-05-10T00:40:29;13.00;;;4.70;;
62925;SDS011;55732;52.248;-0.844;2023-05-10T00:42:55;9.40;;;4.80;;
62925;SDS011;55732;52.248;-0.844;2023-05-10T00:45:21;12.30;;;4.20;;
62925;SDS011;55732;52.248;-0.844;2023-05-10T00:47:47;11.60;;;5.10;;
62925;SDS011;55732;52.248;-0.844;2023-05-10T00:50:13;7.40;;;4.40;;
62925;SDS011;55732;52.248;-0.844;2023-05-10T00:52:39;11.00;;;4.20;;
62925;SDS011;55732;52.248;-0.844;2023-05-10T00:55:05;10.10;;;4.50;;
62925;SDS011;55732;52.248;-0.844;2023-05-10T00:57:31;12.50;;;4.90;;
62925;SDS011;55732;52.248;-0.844;2023-05-10T00:59:57;12.10;;;4.80;;
62925;SDS011;55732;52.248;-0.844;2023-05-10T01:02:24;9.70;;;4.80;;
62925;SDS011;55732;52.248;-0.844;2023-05-10T01:04:49;9.10;;;4.20;;
62925;SDS011;55732;52.248;-0.844;2023-05-10T01:07:15;12.40;;;4.20;;
62925;SDS011;55732;52.248;-0.844;2023-05-10T01:09:40;12.10;;;4.50;;
62925;SDS011;55732;52.248;-0.844;2023-05-10T01:12:06;9.50;;;4.50;;
62925;SDS011;55732;52.248;-0.844;2023-05-10T01:14:32;8.60;;;4.40;;
62925;SDS011;55732;52.248;-0.844;2023-05-10T01:16:59;7.70;;;4.60;;
62925;SDS011;55732;52.248;-0.844;2023-05-10T01:19:26;11.50;;;4.90;;
62925;SDS011;55732;52.248;-0.844;2023-05-10T01:33:24;13.00;;;6.50;;
62925;SDS011;55732;52.248;-0.844;2023-05-10T01:36:00;12.00;;;6.80;;
62925;SDS011;55732;52.248;-0.844;2023-05-10T01:38:42;10.70;;;6.10;;
62925;SDS011;55732;52.248;-0.844;2023-05-10T01:41:28;19.20;;;7.00;;
62925;SDS011;55732;52.248;-0.844;2023-05-10T01:47:12;12.50;;;7.40;;
62925;SDS011;55732;52.248;-0.844;2023-05-10T01:49:43;13.40;;;7.40;;
62925;SDS011;55732;52.248;-0.844;2023-05-10T01:52:13;10.70;;;6.90;;
62925;SDS011;55732;52.248;-0.844;2023-05-10T01:54:44;14.80;;;7.40;;
62925;SDS011;55732;52.248;-0.844;2023-05-10T01:57:14;19.10;;;7.60;;
62925;SDS011;55732;52.248;-0.844;2023-05-10T01:59:43;11.80;;;7.10;;
62925;SDS011;55732;52.248;-0.844;2023-05-10T02:02:13;16.40;;;7.40;;
62925;SDS011;55732;52.248;-0.844;2023-05-10T02:04:40;14.90;;;7.00;;
62925;SDS011;55732;52.248;-0.844;2023-05-10T02:07:07;10.90;;;6.70;;
62925;SDS011;55732;52.248;-0.844;2023-05-10T02:09:34;13.70;;;7.40;;
62925;SDS011;55732;52.248;-0.844;2023-05-10T02:12:02;13.70;;;7.30;;
62925;SDS011;55732;52.248;-0.844;2023-05-10T02:14:30;16.50;;;7.30;;
62925;SDS011;55732;52.248;-0.844;2023-05-10T02:16:59;12.30;;;7.20;;
62925;SDS011;55732;52.248;-0.844;2023-05-10T02:19:26;11.70;;;6.30;;
62925;SDS011;55732;52.248;-0.844;2023-05-10T02:21:55;11.80;;;6.30;;
62925;SDS011;55732;52.248;-0.844;2023-05-10T02:24:22;14.20;;;6.40;;
62925;SDS011;55732;52.248;-0.844;2023-05-10T02:26:49;11.30;;;6.30;;
62925;SDS011;55732;52.248;-0.844;2023-05-10T02:29:19;13.80;;;6.40;;
62925;SDS011;55732;52.248;-0.844;2023-05-10T02:31:45;9.00;;;5.80;;
62925;SDS011;55732;52.248;-0.844;2023-05-10T02:34:12;11.00;;;6.10;;
62925;SDS011;55732;52.248;-0.844;2023-05-10T02:36:39;11.40;;;6.30;;
62925;SDS011;55732;52.248;-0.844;2023-05-10T02:39:05;11.50;;;6.60;;
62925;SDS011;55732;52.248;-0.844;2023-05-10T02:41:37;11.10;;;6.20;;
62925;SDS011;55732;52.248;-0.844;2023-05-10T02:44:04;12.00;;;6.50;;
62925;SDS011;55732;52.248;-0.844;2023-05-10T02:46:34;10.90;;;5.80;;
62925;SDS011;55732;52.248;-0.844;2023-05-10T02:49:01;13.00;;;6.00;;
62925;SDS011;55732;52.248;-0.844;2023-05-10T02:51:28;11.80;;;6.20;;
62925;SDS011;55732;52.248;-0.844;2023-05-10T02:53:57;11.70;;;6.10;;
62925;SDS011;55732;52.248;-0.844;2023-05-10T02:56:28;9.50;;;5.90;;
62925;SDS011;55732;52.248;-0.844;2023-05-10T02:58:58;9.10;;;5.00;;
62925;SDS011;55732;52.248;-0.844;2023-05-10T03:01:23;8.80;;;5.30;;
62925;SDS011;55732;52.248;-0.844;2023-05-10T03:03:48;10.20;;;5.50;;
62925;SDS011;55732;52.248;-0.844;2023-05-10T03:06:14;12.40;;;5.40;;
62925;SDS011;55732;52.248;-0.844;2023-05-10T03:08:41;11.90;;;5.90;;
62925;SDS011;55732;52.248;-0.844;2023-05-10T03:11:16;11.00;;;5.70;;
62925;SDS011;55732;52.248;-0.844;2023-05-10T03:17:25;11.00;;;4.90;;
62925;SDS011;55732;52.248;-0.844;2023-05-10T03:20:04;13.00;;;5.30;;
62925;SDS011;55732;52.248;-0.844;2023-05-10T03:22:38;8.10;;;4.90;;
62925;SDS011;55732;52.248;-0.844;2023-05-10T03:25:06;10.50;;;5.40;;
62925;SDS011;55732;52.248;-0.844;2023-05-10T03:27:36;10.00;;;5.20;;
62925;SDS011;55732;52.248;-0.844;2023-05-10T03:30:05;10.10;;;5.40;;
62925;SDS011;55732;52.248;-0.844;2023-05-10T03:32:33;10.90;;;5.80;;
62925;SDS011;55732;52.248;-0.844;2023-05-10T03:34:59;11.10;;;5.20;;
62925;SDS011;55732;52.248;-0.844;2023-05-10T03:37:25;9.10;;;5.30;;
62925;SDS011;55732;52.248;-0.844;2023-05-10T03:39:50;9.80;;;5.60;;
62925;SDS011;55732;52.248;-0.844;2023-05-10T03:42:15;11.90;;;5.50;;
62925;SDS011;55732;52.248;-0.844;2023-05-10T03:44:42;14.50;;;5.70;;
62925;SDS011;55732;52.248;-0.844;2023-05-10T03:47:08;11.40;;;5.60;;
62925;SDS011;55732;52.248;-0.844;2023-05-10T03:49:33;10.30;;;5.80;;
62925;SDS011;55732;52.248;-0.844;2023-05-10T03:51:58;12.10;;;5.10;;
62925;SDS011;55732;52.248;-0.844;2023-05-10T03:54:24;9.20;;;5.20;;
62925;SDS011;55732;52.248;-0.844;2023-05-10T03:56:49;11.00;;;5.40;;
62925;SDS011;55732;52.248;-0.844;2023-05-10T03:59:14;17.60;;;6.10;;
62925;SDS011;55732;52.248;-0.844;2023-05-10T04:01:40;13.10;;;5.90;;
62925;SDS011;55732;52.248;-0.844;2023-05-10T04:04:05;13.20;;;6.00;;
62925;SDS011;55732;52.248;-0.844;2023-05-10T04:06:31;14.30;;;6.20;;
62925;SDS011;55732;52.248;-0.844;2023-05-10T04:08:56;17.00;;;6.20;;
62925;SDS011;55732;52.248;-0.844;2023-05-10T04:11:24;13.10;;;5.70;;
62925;SDS011;55732;52.248;-0.844;2023-05-10T04:13:50;16.10;;;6.50;;
62925;SDS011;55732;52.248;-0.844;2023-05-10T04:16:16;11.70;;;6.50;;
62925;SDS011;55732;52.248;-0.844;2023-05-10T04:18:41;11.30;;;5.90;;
62925;SDS011;55732;52.248;-0.844;2023-05-10T04:21:13;13.70;;;6.00;;
62925;SDS011;55732;52.248;-0.844;2023-05-10T04:23:39;11.30;;;5.90;;
62925;SDS011;55732;52.248;-0.844;2023-05-10T04:26:04;11.30;;;6.30;;
62925;SDS011;55732;52.248;-0.844;2023-05-10T04:28:30;10.60;;;5.90;;
62925;SDS011;55732;52.248;-0.844;2023-05-10T04:31:05;16.70;;;7.00;;
62925;SDS011;55732;52.248;-0.844;2023-05-10T04:33:32;12.10;;;6.00;;
62925;SDS011;55732;52.248;-0.844;2023-05-10T04:35:58;15.10;;;6.30;;
62925;SDS011;55732;52.248;-0.844;2023-05-10T04:38:23;11.90;;;6.60;;
62925;SDS011;55732;52.248;-0.844;2023-05-10T04:40:49;13.10;;;6.00;;
62925;SDS011;55732;52.248;-0.844;2023-05-10T04:43:15;12.60;;;6.40;;
62925;SDS011;55732;52.248;-0.844;2023-05-10T04:45:40;11.20;;;5.80;;
62925;SDS011;55732;52.248;-0.844;2023-05-10T04:48:06;11.80;;;6.10;;
62925;SDS011;55732;52.248;-0.844;2023-05-10T04:50:31;10.60;;;6.30;;
62925;SDS011;55732;52.248;-0.844;2023-05-10T04:52:56;15.10;;;6.30;;
62925;SDS011;55732;52.248;-0.844;2023-05-10T04:55:22;11.10;;;6.20;;
62925;SDS011;55732;52.248;-0.844;2023-05-10T04:57:47;12.00;;;6.30;;
62925;SDS011;55732;52.248;-0.844;2023-05-10T05:00:13;11.90;;;5.80;;
62925;SDS011;55732;52.248;-0.844;2023-05-10T05:02:41;12.50;;;6.50;;
62925;SDS011;55732;52.248;-0.844;2023-05-10T05:05:08;10.70;;;6.40;;
62925;SDS011;55732;52.248;-0.844;2023-05-10T05:07:33;9.30;;;5.70;;
62925;SDS011;55732;52.248;-0.844;2023-05-10T05:09:59;10.00;;;5.70;;
62925;SDS011;55732;52.248;-0.844;2023-05-10T05:12:24;8.70;;;5.50;;
62925;SDS011;55732;52.248;-0.844;2023-05-10T05:14:50;8.60;;;5.70;;
62925;SDS011;55732;52.248;-0.844;2023-05-10T05:17:15;9.50;;;5.00;;
62925;SDS011;55732;52.248;-0.844;2023-05-10T05:19:41;8.40;;;5.10;;
62925;SDS011;55732;52.248;-0.844;2023-05-10T05:22:06;8.50;;;5.20;;
62925;SDS011;55732;52.248;-0.844;2023-05-10T05:24:36;6.50;;;4.90;;
62925;SDS011;55732;52.248;-0.844;2023-05-10T05:27:05;6.50;;;4.20;;
62925;SDS011;55732;52.248;-0.844;2023-05-10T05:29:31;6.80;;;4.90;;
62925;SDS011;55732;52.248;-0.844;2023-05-10T05:31:56;7.40;;;4.80;;
62925;SDS011;55732;52.248;-0.844;2023-05-10T05:34:22;6.80;;;4.50;;
62925;SDS011;55732;52.248;-0.844;2023-05-10T05:36:47;6.20;;;4.30;;
62925;SDS011;55732;52.248;-0.844;2023-05-10T05:39:13;5.20;;;4.30;;
62925;SDS011;55732;52.248;-0.844;2023-05-10T05:41:38;6.00;;;4.00;;
62925;SDS011;55732;52.248;-0.844;2023-05-10T05:44:04;7.50;;;4.10;;
62925;SDS011;55732;52.248;-0.844;2023-05-10T05:46:29;6.40;;;4.40;;
62925;SDS011;55732;52.248;-0.844;2023-05-10T05:48:55;5.60;;;3.90;;
62925;SDS011;55732;52.248;-0.844;2023-05-10T05:51:21;6.00;;;4.20;;
62925;SDS011;55732;52.248;-0.844;2023-05-10T05:53:46;7.40;;;3.70;;
62925;SDS011;55732;52.248;-0.844;2023-05-10T05:56:11;7.50;;;4.20;;
62925;SDS011;55732;52.248;-0.844;2023-05-10T05:58:37;4.80;;;3.80;;
62925;SDS011;55732;52.248;-0.844;2023-05-10T06:01:02;5.20;;;3.50;;
62925;SDS011;55732;52.248;-0.844;2023-05-10T06:03:27;6.40;;;4.00;;
62925;SDS011;55732;52.248;-0.844;2023-05-10T06:05:53;5.40;;;3.30;;
62925;SDS011;55732;52.248;-0.844;2023-05-10T06:08:18;4.60;;;3.20;;
62925;SDS011;55732;52.248;-0.844;2023-05-10T06:10:43;6.70;;;3.40;;
62925;SDS011;55732;52.248;-0.844;2023-05-10T06:13:10;5.10;;;3.00;;
62925;SDS011;55732;52.248;-0.844;2023-05-10T06:15:35;4.90;;;3.30;;
62925;SDS011;55732;52.248;-0.844;2023-05-10T06:18:01;4.80;;;2.90;;
62925;SDS011;55732;52.248;-0.844;2023-05-10T06:20:26;7.70;;;3.10;;
62925;SDS011;55732;52.248;-0.844;2023-05-10T06:22:52;6.30;;;3.10;;
62925;SDS011;55732;52.248;-0.844;2023-05-10T06:25:17;6.30;;;2.90;;
62925;SDS011;55732;52.248;-0.844;2023-05-10T06:27:43;5.20;;;2.70;;
62925;SDS011;55732;52.248;-0.844;2023-05-10T06:30:09;5.40;;;2.80;;
62925;SDS011;55732;52.248;-0.844;2023-05-10T06:32:35;5.70;;;2.70;;
62925;SDS011;55732;52.248;-0.844;2023-05-10T06:35:00;7.40;;;2.60;;
62925;SDS011;55732;52.248;-0.844;2023-05-10T06:37:25;6.40;;;2.60;;
62925;SDS011;55732;52.248;-0.844;2023-05-10T06:39:51;5.70;;;2.70;;
62925;SDS011;55732;52.248;-0.844;2023-05-10T06:42:16;4.90;;;2.70;;
62925;SDS011;55732;52.248;-0.844;2023-05-10T06:44:42;7.60;;;2.80;;
62925;SDS011;55732;52.248;-0.844;2023-05-10T06:47:08;8.60;;;2.80;;
62925;SDS011;55732;52.248;-0.844;2023-05-10T06:49:34;5.50;;;2.60;;
62925;SDS011;55732;52.248;-0.844;2023-05-10T06:51:59;6.60;;;2.60;;
62925;SDS011;55732;52.248;-0.844;2023-05-10T06:54:25;7.90;;;3.30;;
62925;SDS011;55732;52.248;-0.844;2023-05-10T06:56:50;8.40;;;2.60;;
62925;SDS011;55732;52.248;-0.844;2023-05-10T06:59:16;8.30;;;2.50;;
62925;SDS011;55732;52.248;-0.844;2023-05-10T07:01:41;17.80;;;3.00;;
62925;SDS011;55732;52.248;-0.844;2023-05-10T07:04:07;10.30;;;3.00;;
62925;SDS011;55732;52.248;-0.844;2023-05-10T07:06:33;7.40;;;2.60;;
62925;SDS011;55732;52.248;-0.844;2023-05-10T07:08:59;7.70;;;2.40;;
62925;SDS011;55732;52.248;-0.844;2023-05-10T07:11:25;9.00;;;2.10;;
62925;SDS011;55732;52.248;-0.844;2023-05-10T07:13:50;7.50;;;2.30;;
62925;SDS011;55732;52.248;-0.844;2023-05-10T07:16:16;6.20;;;2.50;;
62925;SDS011;55732;52.248;-0.844;2023-05-10T07:18:41;5.40;;;2.30;;
62925;SDS011;55732;52.248;-0.844;2023-05-10T07:21:06;12.40;;;2.80;;
62925;SDS011;55732;52.248;-0.844;2023-05-10T07:23:32;7.10;;;2.30;;
62925;SDS011;55732;52.248;-0.844;2023-05-10T07:25:57;7.50;;;2.20;;
62925;SDS011;55732;52.248;-0.844;2023-05-10T07:28:23;7.80;;;3.00;;
62925;SDS011;55732;52.248;-0.844;2023-05-10T07:30:51;6.70;;;2.50;;
62925;SDS011;55732;52.248;-0.844;2023-05-10T07:33:17;7.00;;;2.30;;
62925;SDS011;55732;52.248;-0.844;2023-05-10T07:35:42;5.40;;;2.30;;
62925;SDS011;55732;52.248;-0.844;2023-05-10T07:38:08;7.20;;;2.40;;
62925;SDS011;55732;52.248;-0.844;2023-05-10T07:40:35;8.00;;;2.60;;
62925;SDS011;55732;52.248;-0.844;2023-05-10T07:43:01;6.60;;;2.40;;
62925;SDS011;55732;52.248;-0.844;2023-05-10T07:45:27;9.40;;;2.60;;
62925;SDS011;55732;52.248;-0.844;2023-05-10T07:47:53;5.70;;;2.40;;
62925;SDS011;55732;52.248;-0.844;2023-05-10T07:50:18;8.80;;;2.50;;
62925;SDS011;55732;52.248;-0.844;2023-05-10T07:52:43;17.20;;;3.00;;
62925;SDS011;55732;52.248;-0.844;2023-05-10T07:55:09;11.20;;;2.80;;
62925;SDS011;55732;52.248;-0.844;2023-05-10T07:57:34;9.90;;;2.90;;
62925;SDS011;55732;52.248;-0.844;2023-05-10T08:00:00;13.30;;;2.90;;
62925;SDS011;55732;52.248;-0.844;2023-05-10T08:02:25;9.40;;;3.00;;
62925;SDS011;55732;52.248;-0.844;2023-05-10T08:04:51;9.80;;;2.60;;
62925;SDS011;55732;52.248;-0.844;2023-05-10T08:07:17;6.70;;;2.50;;
62925;SDS011;55732;52.248;-0.844;2023-05-10T08:09:42;8.30;;;2.40;;
62925;SDS011;55732;52.248;-0.844;2023-05-10T08:12:08;4.60;;;2.40;;
62925;SDS011;55732;52.248;-0.844;2023-05-10T08:14:33;4.80;;;2.20;;
62925;SDS011;55732;52.248;-0.844;2023-05-10T08:16:58;6.20;;;2.20;;
62925;SDS011;55732;52.248;-0.844;2023-05-10T08:19:24;7.40;;;2.40;;
62925;SDS011;55732;52.248;-0.844;2023-05-10T08:21:49;9.40;;;2.80;;
62925;SDS011;55732;52.248;-0.844;2023-05-10T08:24:15;4.70;;;1.90;;
62925;SDS011;55732;52.248;-0.844;2023-05-10T08:26:40;7.80;;;2.90;;
62925;SDS011;55732;52.248;-0.844;2023-05-10T08:29:05;12.30;;;2.60;;
62925;SDS011;55732;52.248;-0.844;2023-05-10T08:31:31;9.00;;;2.50;;
62925;SDS011;55732;52.248;-0.844;2023-05-10T08:33:56;5.60;;;2.10;;
62925;SDS011;55732;52.248;-0.844;2023-05-10T08:36:22;6.10;;;2.10;;
62925;SDS011;55732;52.248;-0.844;2023-05-10T08:38:52;4.80;;;2.20;;
62925;SDS011;55732;52.248;-0.844;2023-05-10T08:41:21;4.40;;;2.40;;
62925;SDS011;55732;52.248;-0.844;2023-05-10T08:43:50;5.90;;;2.10;;
62925;SDS011;55732;52.248;-0.844;2023-05-10T08:46:17;2.80;;;1.60;;
62925;SDS011;55732;52.248;-0.844;2023-05-10T08:48:46;3.60;;;1.90;;
62925;SDS011;55732;52.248;-0.844;2023-05-10T08:51:14;4.10;;;1.70;;
62925;SDS011;55732;52.248;-0.844;2023-05-10T08:53:42;3.20;;;1.70;;
62925;SDS011;55732;52.248;-0.844;2023-05-10T08:56:09;3.40;;;1.70;;
62925;SDS011;55732;52.248;-0.844;2023-05-10T08:58:34;4.10;;;1.80;;
62925;SDS011;55732;52.248;-0.844;2023-05-10T09:01:01;3.50;;;1.80;;
62925;SDS011;55732;52.248;-0.844;2023-05-10T09:03:28;5.50;;;1.90;;
62925;SDS011;55732;52.248;-0.844;2023-05-10T09:05:53;4.80;;;2.00;;
62925;SDS011;55732;52.248;-0.844;2023-05-10T09:08:20;2.70;;;1.60;;
62925;SDS011;55732;52.248;-0.844;2023-05-10T09:10:50;5.60;;;2.60;;
62925;SDS011;55732;52.248;-0.844;2023-05-10T09:13:16;5.40;;;2.70;;
62925;SDS011;55732;52.248;-0.844;2023-05-10T09:15:43;3.40;;;2.00;;
62925;SDS011;55732;52.248;-0.844;2023-05-10T09:18:09;7.80;;;2.90;;
62925;SDS011;55732;52.248;-0.844;2023-05-10T09:20:34;4.10;;;1.80;;
62925;SDS011;55732;52.248;-0.844;2023-05-10T09:23:00;5.00;;;1.90;;
62925;SDS011;55732;52.248;-0.844;2023-05-10T09:25:25;5.90;;;2.30;;
62925;SDS011;55732;52.248;-0.844;2023-05-10T09:27:51;3.80;;;1.70;;
62925;SDS011;55732;52.248;-0.844;2023-05-10T09:30:27;4.20;;;2.00;;
62925;SDS011;55732;52.248;-0.844;2023-05-10T09:32:53;5.30;;;2.00;;
62925;SDS011;55732;52.248;-0.844;2023-05-10T09:35:23;4.30;;;1.80;;
62925;SDS011;55732;52.248;-0.844;2023-05-10T09:37:52;4.40;;;1.80;;
62925;SDS011;55732;52.248;-0.844;2023-05-10T09:40:19;5.30;;;1.70;;
62925;SDS011;55732;52.248;-0.844;2023-05-10T09:45:24;6.40;;;2.10;;
62925;SDS011;55732;52.248;-0.844;2023-05-10T09:47:51;7.10;;;1.80;;
62925;SDS011;55732;52.248;-0.844;2023-05-10T09:50:18;2.60;;;1.60;;
62925;SDS011;55732;52.248;-0.844;2023-05-10T09:52:55;5.60;;;1.80;;
62925;SDS011;55732;52.248;-0.844;2023-05-10T09:55:23;5.90;;;1.90;;
62925;SDS011;55732;52.248;-0.844;2023-05-10T09:57:58;4.50;;;1.80;;
62925;SDS011;55732;52.248;-0.844;2023-05-10T10:00:24;6.10;;;1.80;;
62925;SDS011;55732;52.248;-0.844;2023-05-10T10:02:57;8.90;;;1.90;;
62925;SDS011;55732;52.248;-0.844;2023-05-10T10:05:33;8.00;;;2.00;;
62925;SDS011;55732;52.248;-0.844;2023-05-10T10:08:02;6.50;;;2.00;;
62925;SDS011;55732;52.248;-0.844;2023-05-10T10:10:29;8.40;;;2.10;;
62925;SDS011;55732;52.248;-0.844;2023-05-10T10:12:56;7.30;;;2.00;;
62925;SDS011;55732;52.248;-0.844;2023-05-10T10:15:22;4.60;;;1.80;;
62925;SDS011;55732;52.248;-0.844;2023-05-10T10:20:15;4.50;;;1.60;;
62925;SDS011;55732;52.248;-0.844;2023-05-10T10:22:41;9.10;;;2.20;;
62925;SDS011;55732;52.248;-0.844;2023-05-10T10:25:07;12.10;;;2.80;;
62925;SDS011;55732;52.248;-0.844;2023-05-10T10:28:16;4.70;;;2.10;;
62925;SDS011;55732;52.248;-0.844;2023-05-10T10:35:59;3.10;;;1.50;;
62925;SDS011;55732;52.248;-0.844;2023-05-10T10:38:35;3.70;;;1.70;;
62925;SDS011;55732;52.248;-0.844;2023-05-10T10:41:04;2.80;;;1.50;;
62925;SDS011;55732;52.248;-0.844;2023-05-10T10:43:35;5.00;;;1.70;;
62925;SDS011;55732;52.248;-0.844;2023-05-10T10:48:35;5.90;;;2.00;;
62925;SDS011;55732;52.248;-0.844;2023-05-10T10:51:01;6.30;;;1.90;;
62925;SDS011;55732;52.248;-0.844;2023-05-10T10:53:27;6.50;;;2.20;;
62925;SDS011;55732;52.248;-0.844;2023-05-10T10:56:14;4.00;;;2.00;;
62925;SDS011;55732;52.248;-0.844;2023-05-10T10:58:40;5.30;;;1.60;;
62925;SDS011;55732;52.248;-0.844;2023-05-10T11:03:40;5.10;;;2.20;;
62925;SDS011;55732;52.248;-0.844;2023-05-10T11:06:06;8.70;;;2.30;;
62925;SDS011;55732;52.248;-0.844;2023-05-10T11:08:34;5.40;;;2.10;;
62925;SDS011;55732;52.248;-0.844;2023-05-10T11:11:08;5.40;;;1.90;;
62925;SDS011;55732;52.248;-0.844;2023-05-10T11:16:10;3.70;;;1.60;;
62925;SDS011;55732;52.248;-0.844;2023-05-10T11:18:52;5.90;;;1.80;;
62925;SDS011;55732;52.248;-0.844;2023-05-10T11:21:23;4.40;;;1.80;;
62925;SDS011;55732;52.248;-0.844;2023-05-10T11:23:54;3.60;;;1.70;;
62925;SDS011;55732;52.248;-0.844;2023-05-10T11:26:22;4.60;;;1.70;;
62925;SDS011;55732;52.248;-0.844;2023-05-10T11:28:55;5.30;;;1.70;;
62925;SDS011;55732;52.248;-0.844;2023-05-10T11:31:20;6.00;;;1.90;;
62925;SDS011;55732;52.248;-0.844;2023-05-10T11:33:48;2.50;;;1.70;;
62925;SDS011;55732;52.248;-0.844;2023-05-10T11:36:15;4.50;;;1.50;;
62925;SDS011;55732;52.248;-0.844;2023-05-10T11:38:43;5.70;;;1.90;;
62925;SDS011;55732;52.248;-0.844;2023-05-10T11:41:09;6.40;;;1.80;;
62925;SDS011;55732;52.248;-0.844;2023-05-10T11:43:36;3.40;;;1.70;;
62925;SDS011;55732;52.248;-0.844;2023-05-10T11:46:06;3.70;;;1.70;;
62925;SDS011;55732;52.248;-0.844;2023-05-10T11:48:33;3.80;;;1.30;;
62925;SDS011;55732;52.248;-0.844;2023-05-10T11:51:00;1.90;;;1.30;;
62925;SDS011;55732;52.248;-0.844;2023-05-10T11:53:26;4.00;;;1.70;;
62925;SDS011;55732;52.248;-0.844;2023-05-10T11:55:52;2.90;;;1.30;;
62925;SDS011;55732;52.248;-0.844;2023-05-10T11:58:18;2.40;;;1.30;;
62925;SDS011;55732;52.248;-0.844;2023-05-10T12:00:44;2.40;;;1.10;;
62925;SDS011;55732;52.248;-0.844;2023-05-10T12:03:10;1.60;;;1.20;;
62925;SDS011;55732;52.248;-0.844;2023-05-10T12:05:36;0.90;;;0.80;;
62925;SDS011;55732;52.248;-0.844;2023-05-10T12:08:15;2.20;;;1.10;;
62925;SDS011;55732;52.248;-0.844;2023-05-10T12:10:41;1.30;;;1.00;;
62925;SDS011;55732;52.248;-0.844;2023-05-10T12:13:13;1.40;;;0.90;;
62925;SDS011;55732;52.248;-0.844;2023-05-10T12:15:40;1.90;;;1.20;;
62925;SDS011;55732;52.248;-0.844;2023-05-10T12:18:07;2.40;;;1.20;;
62925;SDS011;55732;52.248;-0.844;2023-05-10T12:20:34;2.30;;;1.30;;
62925;SDS011;55732;52.248;-0.844;2023-05-10T12:22:59;2.80;;;1.20;;
62925;SDS011;55732;52.248;-0.844;2023-05-10T12:25:31;2.00;;;1.00;;
62925;SDS011;55732;52.248;-0.844;2023-05-10T12:27:59;2.30;;;1.10;;
62925;SDS011;55732;52.248;-0.844;2023-05-10T12:30:28;1.70;;;1.10;;
62925;SDS011;55732;52.248;-0.844;2023-05-10T12:32:59;2.00;;;1.00;;
62925;SDS011;55732;52.248;-0.844;2023-05-10T12:35:33;1.60;;;1.00;;
62925;SDS011;55732;52.248;-0.844;2023-05-10T12:38:27;1.70;;;1.00;;
62925;SDS011;55732;52.248;-0.844;2023-05-10T12:40:57;1.40;;;1.00;;
62925;SDS011;55732;52.248;-0.844;2023-05-10T12:43:24;0.80;;;0.70;;
62925;SDS011;55732;52.248;-0.844;2023-05-10T12:45:49;1.90;;;0.90;;
62925;SDS011;55732;52.248;-0.844;2023-05-10T12:48:15;1.20;;;1.00;;
62925;SDS011;55732;52.248;-0.844;2023-05-10T12:50:40;2.60;;;1.10;;
62925;SDS011;55732;52.248;-0.844;2023-05-10T12:53:06;3.00;;;1.40;;
62925;SDS011;55732;52.248;-0.844;2023-05-10T12:55:31;2.60;;;1.00;;
62925;SDS011;55732;52.248;-0.844;2023-05-10T12:57:57;2.80;;;1.40;;
62925;SDS011;55732;52.248;-0.844;2023-05-10T13:00:22;2.40;;;1.00;;
62925;SDS011;55732;52.248;-0.844;2023-05-10T13:02:47;1.30;;;0.70;;
62925;SDS011;55732;52.248;-0.844;2023-05-10T13:05:13;2.30;;;1.10;;
62925;SDS011;55732;52.248;-0.844;2023-05-10T13:07:38;1.50;;;1.00;;
62925;SDS011;55732;52.248;-0.844;2023-05-10T13:10:04;1.60;;;0.90;;
62925;SDS011;55732;52.248;-0.844;2023-05-10T13:12:31;0.80;;;0.80;;
62925;SDS011;55732;52.248;-0.844;2023-05-10T13:14:57;3.20;;;1.30;;
62925;SDS011;55732;52.248;-0.844;2023-05-10T13:17:22;4.40;;;1.50;;
62925;SDS011;55732;52.248;-0.844;2023-05-10T13:19:48;2.60;;;1.10;;
62925;SDS011;55732;52.248;-0.844;2023-05-10T13:22:13;1.50;;;1.10;;
62925;SDS011;55732;52.248;-0.844;2023-05-10T13:24:39;2.40;;;1.50;;
62925;SDS011;55732;52.248;-0.844;2023-05-10T13:27:04;4.60;;;1.60;;
62925;SDS011;55732;52.248;-0.844;2023-05-10T13:29:29;2.60;;;1.10;;
62925;SDS011;55732;52.248;-0.844;2023-05-10T13:31:55;1.30;;;0.80;;
62925;SDS011;55732;52.248;-0.844;2023-05-10T13:34:21;2.20;;;0.90;;
62925;SDS011;55732;52.248;-0.844;2023-05-10T13:36:46;1.60;;;1.00;;
62925;SDS011;55732;52.248;-0.844;2023-05-10T13:39:12;2.70;;;1.20;;
62925;SDS011;55732;52.248;-0.844;2023-05-10T13:41:38;5.10;;;1.50;;
62925;SDS011;55732;52.248;-0.844;2023-05-10T13:44:03;2.60;;;1.10;;
62925;SDS011;55732;52.248;-0.844;2023-05-10T13:46:29;1.60;;;1.00;;
62925;SDS011;55732;52.248;-0.844;2023-05-10T13:48:55;2.90;;;1.00;;
62925;SDS011;55732;52.248;-0.844;2023-05-10T13:51:22;1.30;;;0.90;;
62925;SDS011;55732;52.248;-0.844;2023-05-10T13:53:47;3.90;;;1.30;;
62925;SDS011;55732;52.248;-0.844;2023-05-10T13:56:13;3.70;;;1.40;;
62925;SDS011;55732;52.248;-0.844;2023-05-10T13:58:39;2.60;;;1.30;;
62925;SDS011;55732;52.248;-0.844;2023-05-10T14:01:04;1.20;;;1.00;;
62925;SDS011;55732;52.248;-0.844;2023-05-10T14:03:30;2.30;;;1.20;;
62925;SDS011;55732;52.248;-0.844;2023-05-10T14:05:55;3.20;;;1.10;;
62925;SDS011;55732;52.248;-0.844;2023-05-10T14:08:21;2.60;;;1.10;;
62925;SDS011;55732;52.248;-0.844;2023-05-10T14:10:47;4.00;;;0.90;;
62925;SDS011;55732;52.248;-0.844;2023-05-10T14:13:14;6.10;;;1.10;;
62925;SDS011;55732;52.248;-0.844;2023-05-10T14:15:40;1.10;;;0.80;;
62925;SDS011;55732;52.248;-0.844;2023-05-10T14:18:06;1.50;;;1.10;;
62925;SDS011;55732;52.248;-0.844;2023-05-10T14:20:31;1.10;;;0.80;;
62925;SDS011;55732;52.248;-0.844;2023-05-10T14:25:24;1.30;;;0.90;;
62925;SDS011;55732;52.248;-0.844;2023-05-10T14:27:50;1.00;;;0.70;;
62925;SDS011;55732;52.248;-0.844;2023-05-10T14:30:15;2.70;;;0.90;;
62925;SDS011;55732;52.248;-0.844;2023-05-10T14:32:41;0.80;;;0.80;;
62925;SDS011;55732;52.248;-0.844;2023-05-10T14:35:06;3.00;;;1.00;;
62925;SDS011;55732;52.248;-0.844;2023-05-10T14:37:32;5.40;;;1.00;;
62925;SDS011;55732;52.248;-0.844;2023-05-10T14:39:58;1.00;;;1.00;;
62925;SDS011;55732;52.248;-0.844;2023-05-10T14:42:23;4.60;;;1.10;;
62925;SDS011;55732;52.248;-0.844;2023-05-10T14:44:48;2.70;;;0.90;;
62925;SDS011;55732;52.248;-0.844;2023-05-10T14:47:14;1.70;;;1.00;;
62925;SDS011;55732;52.248;-0.844;2023-05-10T14:49:39;1.50;;;1.20;;
62925;SDS011;55732;52.248;-0.844;2023-05-10T14:52:05;4.70;;;1.30;;
62925;SDS011;55732;52.248;-0.844;2023-05-10T14:54:31;2.30;;;0.90;;
62925;SDS011;55732;52.248;-0.844;2023-05-10T14:59:24;1.70;;;1.00;;
62925;SDS011;55732;52.248;-0.844;2023-05-10T15:01:49;1.40;;;1.10;;
62925;SDS011;55732;52.248;-0.844;2023-05-10T15:04:14;1.70;;;0.90;;
62925;SDS011;55732;52.248;-0.844;2023-05-10T15:06:41;1.80;;;1.10;;
62925;SDS011;55732;52.248;-0.844;2023-05-10T15:09:06;1.40;;;1.00;;
62925;SDS011;55732;52.248;-0.844;2023-05-10T15:11:32;4.30;;;1.20;;